Time;durP1;ratioP1;P1;durP2;ratioP2;P2;SDS_P1;SDS_P2;PMS_P1;PMS_P2;Temp;Humidity;BMP_temperature;BMP_pressure;BME280_temperature;BME280_humidity;BME280_pressure;Samples;Min_cycle;Max_cycle;Signal;HPM_P1;HPM_P2
2022/07/07 00:01:42;;;;;;;4.17;3.20;;;;;;;;;;1774740;80;21101;-65
2022/07/07 00:04:09;;;;;;;5.42;3.12;;;;;;;;;;1773419;80;21038;-65
2022/07/07 00:06:37;;;;;;;3.35;2.70;;;;;;;;;;1774483;80;21075;-65
2022/07/07 00:09:03;;;;;;;4.60;3.40;;;;;;;;;;1768768;80;21182;-64
2022/07/07 00:11:29;;;;;;;4.05;2.90;;;;;;;;;;1774034;80;21075;-65
2022/07/07 00:13:57;;;;;;;4.83;2.72;;;;;;;;;;1771090;79;21052;-66
2022/07/07 00:16:23;;;;;;;3.47;2.85;;;;;;;;;;1772153;80;22268;-65
2022/07/07 00:18:49;;;;;;;4.42;2.70;;;;;;;;;;1770450;80;21068;-66
2022/07/07 00:21:16;;;;;;;4.90;2.10;;;;;;;;;;1772452;80;21017;-66
2022/07/07 00:23:42;;;;;;;2.85;2.40;;;;;;;;;;1768684;80;21552;-66
2022/07/07 00:26:08;;;;;;;2.92;2.40;;;;;;;;;;1768997;80;21021;-66
2022/07/07 00:28:35;;;;;;;3.15;2.50;;;;;;;;;;1773272;80;21101;-66
2022/07/07 00:31:01;;;;;;;2.85;2.12;;;;;;;;;;1770442;80;21081;-66
2022/07/07 00:33:28;;;;;;;2.00;1.85;;;;;;;;;;1771904;80;21528;-64
2022/07/07 00:35:54;;;;;;;4.47;2.10;;;;;;;;;;1770380;80;21032;-65
2022/07/07 00:38:20;;;;;;;2.72;2.00;;;;;;;;;;1772549;80;20980;-65
2022/07/07 00:40:50;;;;;;;2.33;1.80;;;;;;;;;;1772112;80;21130;-68
2022/07/07 00:43:16;;;;;;;3.67;2.00;;;;;;;;;;1770105;80;21050;-66
2022/07/07 00:45:49;;;;;;;2.52;2.10;;;;;;;;;;1772262;80;21056;-66
2022/07/07 00:48:15;;;;;;;2.92;1.80;;;;;;;;;;1771667;80;21004;-65
2022/07/07 00:50:42;;;;;;;3.77;1.92;;;;;;;;;;1771634;80;21121;-66
2022/07/07 00:53:09;;;;;;;3.37;1.90;;;;;;;;;;1772293;80;21592;-65
2022/07/07 00:55:36;;;;;;;2.60;1.77;;;;;;;;;;1770095;80;21073;-64
2022/07/07 00:58:02;;;;;;;3.37;2.05;;;;;;;;;;1773798;80;21541;-65
2022/07/07 01:03:36;;;;;;;2.10;1.90;;;;;;;;;;1712265;80;21223;-63
2022/07/07 01:06:03;;;;;;;2.10;1.90;;;;;;;;;;1703280;83;21105;-63
2022/07/07 01:08:31;;;;;;;1.70;1.60;;;;;;;;;;1704779;83;21094;-64
2022/07/07 01:10:56;;;;;;;2.02;1.67;;;;;;;;;;1704240;83;21552;-64
2022/07/07 01:13:23;;;;;;;4.67;1.80;;;;;;;;;;1700412;83;21048;-63
2022/07/07 01:15:49;;;;;;;2.45;1.82;;;;;;;;;;1699175;83;21036;-63
2022/07/07 01:18:15;;;;;;;2.40;1.98;;;;;;;;;;1702376;83;22351;-63
2022/07/07 01:20:44;;;;;;;4.10;2.10;;;;;;;;;;1701029;83;21072;-64
2022/07/07 01:23:11;;;;;;;2.30;1.72;;;;;;;;;;1701104;83;21824;-63
2022/07/07 01:25:37;;;;;;;2.75;2.10;;;;;;;;;;1703777;83;21051;-63
2022/07/07 01:28:04;;;;;;;5.22;2.00;;;;;;;;;;1701352;83;21024;-63
2022/07/07 01:30:30;;;;;;;6.33;2.42;;;;;;;;;;1705123;83;21069;-63
2022/07/07 01:32:56;;;;;;;3.70;2.10;;;;;;;;;;1707627;83;21594;-63
2022/07/07 01:35:22;;;;;;;3.10;1.87;;;;;;;;;;1702439;83;21554;-63
2022/07/07 01:37:49;;;;;;;3.70;2.17;;;;;;;;;;1703237;83;21122;-64
2022/07/07 01:40:15;;;;;;;1.80;1.52;;;;;;;;;;1703008;83;21046;-64
2022/07/07 01:42:41;;;;;;;2.37;1.80;;;;;;;;;;1700659;83;21045;-63
2022/07/07 01:45:08;;;;;;;7.80;2.50;;;;;;;;;;1701718;83;21101;-64
2022/07/07 01:47:35;;;;;;;1.92;1.57;;;;;;;;;;1705878;83;21598;-63
2022/07/07 01:50:01;;;;;;;3.55;1.70;;;;;;;;;;1702241;83;21088;-63
2022/07/07 01:52:27;;;;;;;3.00;1.95;;;;;;;;;;1704819;83;21018;-64
2022/07/07 01:54:53;;;;;;;1.98;1.62;;;;;;;;;;1703753;83;20995;-63
2022/07/07 01:57:20;;;;;;;3.15;1.60;;;;;;;;;;1705465;83;21129;-63
2022/07/07 01:59:46;;;;;;;2.40;1.90;;;;;;;;;;1703450;83;21056;-64
2022/07/07 02:02:13;;;;;;;2.87;1.50;;;;;;;;;;1705604;83;21037;-63
2022/07/07 02:04:39;;;;;;;3.27;1.65;;;;;;;;;;1692530;81;21125;-63
2022/07/07 02:07:06;;;;;;;1.95;1.75;;;;;;;;;;1687330;83;21041;-63
2022/07/07 02:09:32;;;;;;;2.87;1.60;;;;;;;;;;1684065;83;21025;-63
2022/07/07 02:11:59;;;;;;;1.80;1.55;;;;;;;;;;1681867;83;21535;-63
2022/07/07 02:14:25;;;;;;;4.70;1.77;;;;;;;;;;1683809;83;21049;-63
2022/07/07 02:16:52;;;;;;;1.70;1.60;;;;;;;;;;1683056;83;21042;-63
2022/07/07 02:19:18;;;;;;;4.20;1.87;;;;;;;;;;1680066;83;21060;-63
2022/07/07 02:21:45;;;;;;;3.08;1.70;;;;;;;;;;1682892;83;21081;-64
2022/07/07 02:24:11;;;;;;;3.00;1.70;;;;;;;;;;1679975;83;21073;-63
2022/07/07 02:26:37;;;;;;;3.40;1.70;;;;;;;;;;1678619;83;21583;-63
2022/07/07 02:29:04;;;;;;;2.25;1.82;;;;;;;;;;1686638;83;21077;-63
2022/07/07 02:31:31;;;;;;;3.25;1.75;;;;;;;;;;1681369;83;21566;-63
2022/07/07 02:33:58;;;;;;;3.98;1.75;;;;;;;;;;1683767;83;21088;-64
2022/07/07 02:36:24;;;;;;;2.47;1.80;;;;;;;;;;1682308;83;21072;-63
2022/07/07 02:38:51;;;;;;;2.47;1.90;;;;;;;;;;1680977;83;21077;-63
2022/07/07 02:41:19;;;;;;;2.17;1.70;;;;;;;;;;1677846;83;21051;-64
2022/07/07 02:43:46;;;;;;;3.27;1.77;;;;;;;;;;1689316;83;21069;-63
2022/07/07 02:46:12;;;;;;;2.62;1.75;;;;;;;;;;1688496;83;21182;-63
2022/07/07 02:48:38;;;;;;;2.92;2.00;;;;;;;;;;1684606;83;21093;-63
2022/07/07 02:51:04;;;;;;;2.72;1.90;;;;;;;;;;1686865;83;21104;-63
2022/07/07 02:53:31;;;;;;;2.00;1.80;;;;;;;;;;1686748;83;21052;-63
2022/07/07 02:55:57;;;;;;;3.17;1.70;;;;;;;;;;1683979;83;21072;-64
2022/07/07 02:58:24;;;;;;;2.98;2.00;;;;;;;;;;1678569;83;21663;-63
2022/07/07 03:00:51;;;;;;;3.65;2.15;;;;;;;;;;1679705;83;21097;-63
2022/07/07 03:03:19;;;;;;;2.95;1.90;;;;;;;;;;1692089;83;21117;-65
2022/07/07 03:05:47;;;;;;;3.27;1.77;;;;;;;;;;1692210;83;21037;-63
2022/07/07 03:08:13;;;;;;;3.33;2.02;;;;;;;;;;1689796;84;21036;-64
2022/07/07 03:10:39;;;;;;;3.17;2.10;;;;;;;;;;1686868;84;21093;-64
2022/07/07 03:13:06;;;;;;;3.33;2.00;;;;;;;;;;1690610;84;21142;-64
2022/07/07 03:15:32;;;;;;;2.62;1.90;;;;;;;;;;1686616;84;21630;-64
2022/07/07 03:17:58;;;;;;;2.67;1.87;;;;;;;;;;1683070;84;21065;-64
2022/07/07 03:20:25;;;;;;;1.98;1.77;;;;;;;;;;1683012;84;21089;-63
2022/07/07 03:22:51;;;;;;;2.22;1.80;;;;;;;;;;1681479;84;21623;-63
2022/07/07 03:25:17;;;;;;;2.65;1.80;;;;;;;;;;1680412;84;21115;-63
2022/07/07 03:27:44;;;;;;;2.10;1.60;;;;;;;;;;1682941;84;21125;-63
2022/07/07 03:30:10;;;;;;;3.02;1.90;;;;;;;;;;1686082;84;21159;-64
2022/07/07 03:32:37;;;;;;;3.33;1.80;;;;;;;;;;1688915;84;21023;-63
2022/07/07 03:35:04;;;;;;;1.98;1.77;;;;;;;;;;1694996;84;22344;-63
2022/07/07 03:37:33;;;;;;;5.65;1.77;;;;;;;;;;1686667;84;21120;-63
2022/07/07 03:39:59;;;;;;;4.33;2.10;;;;;;;;;;1685423;84;21069;-64
2022/07/07 03:42:25;;;;;;;3.47;1.80;;;;;;;;;;1683480;84;21082;-64
2022/07/07 03:44:51;;;;;;;2.87;1.60;;;;;;;;;;1687866;83;21103;-64
2022/07/07 03:47:17;;;;;;;4.25;1.87;;;;;;;;;;1686722;84;21803;-64
2022/07/07 03:49:44;;;;;;;2.40;1.77;;;;;;;;;;1683272;83;21069;-63
2022/07/07 03:52:10;;;;;;;3.83;2.00;;;;;;;;;;1683348;84;21073;-64
2022/07/07 03:54:37;;;;;;;2.40;1.90;;;;;;;;;;1685785;84;21037;-64
2022/07/07 03:57:04;;;;;;;3.80;2.00;;;;;;;;;;1683801;83;21056;-62
2022/07/07 03:59:30;;;;;;;2.87;1.87;;;;;;;;;;1688624;83;22183;-63
2022/07/07 04:01:56;;;;;;;2.62;1.80;;;;;;;;;;1688667;83;21116;-64
2022/07/07 04:04:23;;;;;;;2.50;1.77;;;;;;;;;;1633843;86;21129;-65
2022/07/07 04:06:49;;;;;;;2.15;1.80;;;;;;;;;;1643539;86;21061;-65
2022/07/07 04:09:16;;;;;;;3.67;1.67;;;;;;;;;;1657259;85;21162;-65
2022/07/07 04:11:42;;;;;;;2.65;1.80;;;;;;;;;;1663038;85;21200;-63
2022/07/07 04:14:09;;;;;;;1.75;1.57;;;;;;;;;;1659133;85;21092;-65
2022/07/07 04:16:35;;;;;;;2.60;1.70;;;;;;;;;;1663678;85;21053;-65
2022/07/07 04:19:02;;;;;;;5.03;1.67;;;;;;;;;;1659948;85;21080;-64
2022/07/07 04:21:29;;;;;;;2.00;1.70;;;;;;;;;;1659963;85;21089;-64
2022/07/07 04:23:55;;;;;;;2.35;1.90;;;;;;;;;;1657845;85;21509;-64
2022/07/07 04:26:21;;;;;;;2.30;1.87;;;;;;;;;;1658935;85;21992;-64
2022/07/07 04:28:48;;;;;;;2.30;1.90;;;;;;;;;;1660787;85;21081;-66
2022/07/07 04:31:14;;;;;;;2.33;1.90;;;;;;;;;;1706685;82;21059;-64
2022/07/07 04:33:40;;;;;;;2.42;1.92;;;;;;;;;;1704700;82;21041;-63
2022/07/07 04:36:09;;;;;;;2.83;1.98;;;;;;;;;;1709865;83;21635;-64
2022/07/07 04:38:35;;;;;;;3.27;1.90;;;;;;;;;;1700914;82;21103;-64
2022/07/07 04:41:02;;;;;;;2.17;1.82;;;;;;;;;;1704106;82;21033;-64
2022/07/07 04:43:28;;;;;;;2.33;1.82;;;;;;;;;;1708168;83;21001;-63
2022/07/07 04:45:54;;;;;;;3.30;1.80;;;;;;;;;;1705297;82;21088;-63
2022/07/07 04:48:21;;;;;;;2.62;2.00;;;;;;;;;;1702489;82;21062;-64
2022/07/07 04:50:48;;;;;;;3.50;2.02;;;;;;;;;;1706814;82;21631;-63
2022/07/07 04:53:15;;;;;;;2.47;1.70;;;;;;;;;;1702416;82;21073;-64
2022/07/07 04:55:41;;;;;;;2.17;1.90;;;;;;;;;;1707797;83;21104;-64
2022/07/07 04:58:07;;;;;;;2.00;1.80;;;;;;;;;;1700479;82;21065;-64
2022/07/07 05:00:34;;;;;;;3.58;1.77;;;;;;;;;;1703570;83;21045;-64
2022/07/07 05:03:02;;;;;;;7.22;2.50;;;;;;;;;;1703807;82;21091;-64
2022/07/07 05:05:28;;;;;;;3.72;2.08;;;;;;;;;;1700885;82;21105;-65
2022/07/07 05:07:54;;;;;;;2.77;2.00;;;;;;;;;;1702399;82;21611;-64
2022/07/07 05:10:21;;;;;;;5.42;2.10;;;;;;;;;;1701763;83;21563;-64
2022/07/07 05:12:47;;;;;;;2.60;2.08;;;;;;;;;;1702852;82;21098;-65
2022/07/07 05:15:13;;;;;;;2.22;1.90;;;;;;;;;;1695154;83;21049;-65
2022/07/07 05:17:40;;;;;;;2.98;2.20;;;;;;;;;;1702787;82;21045;-65
2022/07/07 05:20:07;;;;;;;2.30;1.95;;;;;;;;;;1709194;82;21527;-65
2022/07/07 05:22:33;;;;;;;3.50;2.80;;;;;;;;;;1704503;83;21533;-65
2022/07/07 05:25:00;;;;;;;4.05;2.90;;;;;;;;;;1708253;82;21111;-64
2022/07/07 05:27:26;;;;;;;4.80;2.65;;;;;;;;;;1665252;85;21085;-63
2022/07/07 05:29:53;;;;;;;3.83;3.40;;;;;;;;;;1703442;82;21052;-64
2022/07/07 05:32:19;;;;;;;3.80;3.20;;;;;;;;;;1705133;82;21124;-65
2022/07/07 05:34:46;;;;;;;3.35;2.98;;;;;;;;;;1700204;82;21085;-65
2022/07/07 05:37:12;;;;;;;3.80;3.40;;;;;;;;;;1702020;83;21069;-65
2022/07/07 05:39:38;;;;;;;3.58;3.12;;;;;;;;;;1707157;82;22266;-63
2022/07/07 05:42:05;;;;;;;3.52;3.22;;;;;;;;;;1697220;82;21041;-65
2022/07/07 05:44:31;;;;;;;3.72;3.22;;;;;;;;;;1702883;82;21545;-64
2022/07/07 05:46:58;;;;;;;4.08;3.50;;;;;;;;;;1702403;83;21096;-64
2022/07/07 05:49:24;;;;;;;4.70;3.90;;;;;;;;;;1705838;83;21021;-64
2022/07/07 05:51:50;;;;;;;4.00;3.10;;;;;;;;;;1704668;82;21434;-65
2022/07/07 05:54:16;;;;;;;5.90;3.50;;;;;;;;;;1708058;82;21057;-64
2022/07/07 05:56:42;;;;;;;4.85;3.40;;;;;;;;;;1703074;82;21063;-66
2022/07/07 05:59:09;;;;;;;4.12;3.10;;;;;;;;;;1699105;82;21061;-64
2022/07/07 06:01:35;;;;;;;4.22;3.17;;;;;;;;;;1705232;83;21618;-64
2022/07/07 06:04:01;;;;;;;6.20;3.20;;;;;;;;;;1703890;83;22219;-65
2022/07/07 06:06:27;;;;;;;6.37;3.80;;;;;;;;;;1705104;82;21329;-65
2022/07/07 06:08:55;;;;;;;3.27;2.67;;;;;;;;;;1707926;82;21034;-64
2022/07/07 06:11:21;;;;;;;4.55;2.87;;;;;;;;;;1707039;82;21049;-67
2022/07/07 06:13:47;;;;;;;4.50;3.10;;;;;;;;;;1706333;82;21071;-64
2022/07/07 06:16:13;;;;;;;3.52;2.50;;;;;;;;;;1707504;82;21071;-63
2022/07/07 06:18:41;;;;;;;3.85;2.65;;;;;;;;;;1707466;82;21065;-62
2022/07/07 06:21:07;;;;;;;3.60;2.50;;;;;;;;;;1705811;82;21092;-63
2022/07/07 06:23:33;;;;;;;3.72;2.75;;;;;;;;;;1657255;85;21084;-63
2022/07/07 06:26:02;;;;;;;2.72;2.40;;;;;;;;;;1633661;85;21060;-64
2022/07/07 06:28:28;;;;;;;3.98;2.30;;;;;;;;;;1632098;85;21112;-63
2022/07/07 06:30:55;;;;;;;2.87;2.37;;;;;;;;;;1675342;84;21097;-64
2022/07/07 06:33:21;;;;;;;4.45;2.37;;;;;;;;;;1658085;85;21027;-63
2022/07/07 06:35:47;;;;;;;3.02;2.50;;;;;;;;;;1641302;86;21117;-63
2022/07/07 06:38:13;;;;;;;4.15;2.50;;;;;;;;;;1633429;87;21113;-64
2022/07/07 06:40:39;;;;;;;3.20;2.40;;;;;;;;;;1629233;88;21261;-64
2022/07/07 06:43:05;;;;;;;2.52;2.05;;;;;;;;;;1629335;88;21568;-62
2022/07/07 06:45:33;;;;;;;3.02;2.50;;;;;;;;;;1633232;88;21086;-62
2022/07/07 06:47:59;;;;;;;3.35;2.60;;;;;;;;;;1633411;88;21506;-63
2022/07/07 06:50:25;;;;;;;4.08;2.40;;;;;;;;;;1633359;88;21892;-63
2022/07/07 06:56:07;;;;;;;2.92;2.25;;;;;;;;;;1633131;88;21605;-63
2022/07/07 06:58:34;;;;;;;4.08;2.45;;;;;;;;;;1633306;88;21095;-63
2022/07/07 07:01:00;;;;;;;2.77;2.47;;;;;;;;;;1633525;87;22029;-63
2022/07/07 07:03:26;;;;;;;4.10;2.50;;;;;;;;;;1650958;85;21071;-63
2022/07/07 07:05:53;;;;;;;2.98;2.62;;;;;;;;;;1656796;85;21030;-62
2022/07/07 07:08:19;;;;;;;3.17;2.30;;;;;;;;;;1660610;85;21112;-64
2022/07/07 07:10:45;;;;;;;4.40;2.40;;;;;;;;;;1660730;85;22175;-63
2022/07/07 07:13:11;;;;;;;4.60;2.33;;;;;;;;;;1654907;85;21158;-63
2022/07/07 07:15:39;;;;;;;3.95;2.70;;;;;;;;;;1680766;83;21067;-69
2022/07/07 07:18:06;;;;;;;3.65;2.47;;;;;;;;;;1661969;85;21058;-71
2022/07/07 07:20:35;;;;;;;27.42;22.32;;;;;;;;;;1679989;85;21042;-64
2022/07/07 07:23:01;;;;;;;16.77;13.08;;;;;;;;;;1658069;86;21034;-64
2022/07/07 07:25:27;;;;;;;10.23;7.50;;;;;;;;;;1673283;85;21568;-63
2022/07/07 07:27:53;;;;;;;6.08;2.85;;;;;;;;;;1676978;85;21036;-64
2022/07/07 07:30:19;;;;;;;6.62;2.72;;;;;;;;;;1661505;86;20969;-65
2022/07/07 07:32:45;;;;;;;13.00;2.80;;;;;;;;;;1687337;85;21030;-67
2022/07/07 07:35:11;;;;;;;3.90;2.40;;;;;;;;;;1685855;85;22169;-63
2022/07/07 07:37:40;;;;;;;8.83;2.80;;;;;;;;;;1646762;86;21197;-63
2022/07/07 07:40:07;;;;;;;3.30;2.40;;;;;;;;;;1683064;83;21129;-63
2022/07/07 07:42:34;;;;;;;2.95;2.40;;;;;;;;;;1687928;83;21025;-66
2022/07/07 07:45:12;;;;;;;3.42;2.30;;;;;;;;;;1683750;85;21331;-66
2022/07/07 07:47:41;;;;;;;3.02;2.20;;;;;;;;;;1658981;86;21081;-67
2022/07/07 07:50:08;;;;;;;5.97;2.30;;;;;;;;;;1687055;85;21042;-67
2022/07/07 07:52:34;;;;;;;5.78;2.33;;;;;;;;;;1688519;85;20998;-64
2022/07/07 07:55:00;;;;;;;27.22;20.15;;;;;;;;;;1652657;86;21517;-66
2022/07/07 07:57:26;;;;;;;20.17;15.28;;;;;;;;;;1669074;86;21032;-65
2022/07/07 07:59:52;;;;;;;5.20;3.33;;;;;;;;;;1655135;86;21140;-66
2022/07/07 08:02:18;;;;;;;2.47;2.20;;;;;;;;;;1662958;85;21132;-65
2022/07/07 08:04:44;;;;;;;4.28;2.40;;;;;;;;;;1689547;83;21095;-66
2022/07/07 08:07:12;;;;;;;4.95;2.20;;;;;;;;;;1673337;83;21059;-67
2022/07/07 08:09:38;;;;;;;2.58;2.05;;;;;;;;;;1667056;86;21052;-65
2022/07/07 08:12:05;;;;;;;2.33;2.10;;;;;;;;;;1666087;86;21473;-65
2022/07/07 08:14:31;;;;;;;2.80;2.40;;;;;;;;;;1651571;86;21606;-66
2022/07/07 08:16:57;;;;;;;2.50;2.30;;;;;;;;;;1679267;84;21029;-65
2022/07/07 08:19:24;;;;;;;2.20;2.00;;;;;;;;;;1674011;84;21097;-65
2022/07/07 08:21:51;;;;;;;3.33;2.20;;;;;;;;;;1668393;86;21040;-65
2022/07/07 08:24:17;;;;;;;3.62;2.62;;;;;;;;;;1668445;86;21001;-65
2022/07/07 08:26:43;;;;;;;3.47;2.65;;;;;;;;;;1668264;86;21044;-65
2022/07/07 08:29:10;;;;;;;4.62;2.65;;;;;;;;;;1667585;86;21124;-66
2022/07/07 08:31:36;;;;;;;3.67;2.20;;;;;;;;;;1668204;86;21131;-66
2022/07/07 08:34:02;;;;;;;2.95;2.22;;;;;;;;;;1668499;86;21048;-66
2022/07/07 08:36:30;;;;;;;2.30;2.10;;;;;;;;;;1668310;84;21183;-65
2022/07/07 08:38:57;;;;;;;2.20;1.92;;;;;;;;;;1666560;86;21045;-65
2022/07/07 08:41:24;;;;;;;2.30;2.10;;;;;;;;;;1667908;86;21048;-65
2022/07/07 08:43:50;;;;;;;2.22;2.02;;;;;;;;;;1663810;86;21040;-65
2022/07/07 08:46:16;;;;;;;2.45;2.10;;;;;;;;;;1665591;84;21132;-65
2022/07/07 08:48:43;;;;;;;2.80;2.10;;;;;;;;;;1669436;86;21052;-65
2022/07/07 08:51:09;;;;;;;2.87;2.65;;;;;;;;;;1666860;86;21049;-64
2022/07/07 08:53:36;;;;;;;4.33;2.27;;;;;;;;;;1671058;84;21084;-61
2022/07/07 08:56:06;;;;;;;3.42;2.50;;;;;;;;;;1649879;86;21052;-62
2022/07/07 08:58:32;;;;;;;25.55;23.05;;;;;;;;;;1666975;86;21572;-62
2022/07/07 09:00:58;;;;;;;21.93;19.65;;;;;;;;;;1668102;85;21100;-64
2022/07/07 09:03:27;;;;;;;8.18;6.22;;;;;;;;;;1664751;86;21112;-65
2022/07/07 09:05:54;;;;;;;2.67;2.30;;;;;;;;;;1668015;86;21018;-63
2022/07/07 09:08:21;;;;;;;2.55;2.12;;;;;;;;;;1668452;86;21135;-66
2022/07/07 09:10:47;;;;;;;2.95;2.42;;;;;;;;;;1660658;86;21548;-67
2022/07/07 09:13:26;;;;;;;3.22;2.30;;;;;;;;;;1668463;86;21104;-66
2022/07/07 09:15:53;;;;;;;3.62;2.52;;;;;;;;;;1667707;86;21017;-67
2022/07/07 09:18:36;;;;;;;2.30;2.10;;;;;;;;;;1666828;85;21009;-66
2022/07/07 09:21:04;;;;;;;3.67;2.50;;;;;;;;;;1642190;86;21098;-68
2022/07/07 09:23:30;;;;;;;5.22;2.33;;;;;;;;;;1639791;87;21647;-64
2022/07/07 09:25:56;;;;;;;2.72;2.50;;;;;;;;;;1667893;85;21039;-64
2022/07/07 09:28:23;;;;;;;2.52;2.33;;;;;;;;;;1655753;86;21232;-63
2022/07/07 09:30:49;;;;;;;3.65;2.20;;;;;;;;;;1620504;86;21061;-65
2022/07/07 09:33:19;;;;;;;2.77;2.55;;;;;;;;;;1656516;86;21014;-64
2022/07/07 09:39:44;;;;;;;6.45;2.70;;;;;;;;;;1867752;75;23999;-64
2022/07/07 09:42:18;;;;;;;2.65;2.20;;;;;;;;;;1825075;77;21028;-63
2022/07/07 09:44:49;;;;;;;5.22;3.40;;;;;;;;;;1837682;77;21059;-64
2022/07/07 09:47:16;;;;;;;5.35;3.40;;;;;;;;;;1854773;77;21507;-63
2022/07/07 09:49:43;;;;;;;4.75;2.72;;;;;;;;;;1836749;77;21024;-65
2022/07/07 09:52:16;;;;;;;8.50;5.90;;;;;;;;;;1829715;77;21098;-64
2022/07/07 09:54:46;;;;;;;2.62;2.40;;;;;;;;;;1839216;77;21009;-64
2022/07/07 09:57:12;;;;;;;3.00;2.70;;;;;;;;;;1859554;77;21020;-64
2022/07/07 09:59:41;;;;;;;4.50;3.00;;;;;;;;;;1839447;77;21067;-65
2022/07/07 10:02:08;;;;;;;2.60;2.40;;;;;;;;;;1816069;77;21135;-65
2022/07/07 10:04:34;;;;;;;4.58;2.95;;;;;;;;;;1781100;79;21076;-63
2022/07/07 10:07:00;;;;;;;17.02;12.03;;;;;;;;;;1791973;79;20996;-64
2022/07/07 10:09:26;;;;;;;15.20;9.78;;;;;;;;;;1804180;78;21055;-63
2022/07/07 10:11:53;;;;;;;4.60;3.58;;;;;;;;;;1787237;78;21598;-67
2022/07/07 10:14:23;;;;;;;2.75;2.50;;;;;;;;;;1815851;78;20953;-67
2022/07/07 10:16:51;;;;;;;3.08;2.65;;;;;;;;;;1799449;78;21026;-65
2022/07/07 10:19:18;;;;;;;3.67;2.30;;;;;;;;;;1794888;79;21044;-63
2022/07/07 10:21:45;;;;;;;3.02;2.35;;;;;;;;;;1794294;78;21106;-63
2022/07/07 10:24:11;;;;;;;2.70;2.50;;;;;;;;;;1798639;79;21048;-63
2022/07/07 10:26:38;;;;;;;3.05;2.10;;;;;;;;;;1811029;78;21540;-65
2022/07/07 10:29:04;;;;;;;5.00;2.30;;;;;;;;;;1811630;79;21012;-63
2022/07/07 10:31:31;;;;;;;2.77;2.20;;;;;;;;;;1746208;80;21022;-64
2022/07/07 10:34:05;;;;;;;2.75;2.30;;;;;;;;;;1749741;81;21488;-64
2022/07/07 10:36:45;;;;;;;2.58;2.25;;;;;;;;;;1751409;81;21604;-64
2022/07/07 10:39:12;;;;;;;2.35;2.15;;;;;;;;;;1748976;81;21080;-65
2022/07/07 10:41:38;;;;;;;2.40;2.20;;;;;;;;;;1753862;81;21041;-65
2022/07/07 10:44:05;;;;;;;2.98;2.17;;;;;;;;;;1745385;81;21493;-65
2022/07/07 10:46:33;;;;;;;2.30;2.10;;;;;;;;;;1738207;81;21034;-65
2022/07/07 10:49:10;;;;;;;3.87;2.20;;;;;;;;;;1720265;81;21551;-64
2022/07/07 10:51:53;;;;;;;3.52;2.30;;;;;;;;;;1774342;80;21106;-65
2022/07/07 10:54:36;;;;;;;4.55;2.30;;;;;;;;;;1776477;80;21063;-61
2022/07/07 10:57:05;;;;;;;15.13;13.60;;;;;;;;;;1727956;81;21063;-65
2022/07/07 10:59:50;;;;;;;32.35;28.90;;;;;;;;;;1747854;80;21997;-70
2022/07/07 11:02:19;;;;;;;5.40;4.75;;;;;;;;;;1722931;81;21656;-75
2022/07/07 11:04:51;;;;;;;2.62;2.33;;;;;;;;;;1716043;82;21602;-77
2022/07/07 11:07:14;;;;;;;2.50;2.30;;;;;;;;;;1737484;81;21049;-74
2022/07/07 11:09:57;;;;;;;2.50;2.30;;;;;;;;;;1738301;81;21063;-73
2022/07/07 11:12:34;;;;;;;2.37;2.00;;;;;;;;;;1730345;81;21029;-76
2022/07/07 11:15:17;;;;;;;3.65;2.22;;;;;;;;;;1736803;81;21037;-78
2022/07/07 11:17:45;;;;;;;3.20;2.20;;;;;;;;;;1742717;81;21138;-77
2022/07/07 11:20:15;;;;;;;2.30;2.00;;;;;;;;;;1723869;81;21527;-77
2022/07/07 11:22:45;;;;;;;3.15;2.08;;;;;;;;;;1742104;81;20996;-79
2022/07/07 11:25:12;;;;;;;2.50;2.10;;;;;;;;;;1742327;81;21066;-77
2022/07/07 11:27:39;;;;;;;2.30;2.10;;;;;;;;;;1741810;81;21017;-77
2022/07/07 11:30:06;;;;;;;2.27;2.02;;;;;;;;;;1735868;81;22255;-71
2022/07/07 11:32:38;;;;;;;2.27;2.08;;;;;;;;;;1731436;81;21179;-69
2022/07/07 11:35:05;;;;;;;3.77;2.15;;;;;;;;;;1740439;81;21128;-71
2022/07/07 11:37:31;;;;;;;2.95;2.12;;;;;;;;;;1737222;81;21544;-71
2022/07/07 11:39:59;;;;;;;3.95;2.20;;;;;;;;;;1738515;81;21018;-72
2022/07/07 11:42:25;;;;;;;3.30;2.25;;;;;;;;;;1748396;81;21056;-72
2022/07/07 11:44:51;;;;;;;4.22;2.15;;;;;;;;;;1745835;81;21057;-72
2022/07/07 11:47:18;;;;;;;2.45;1.80;;;;;;;;;;1734457;81;21046;-72
2022/07/07 11:49:44;;;;;;;3.15;2.20;;;;;;;;;;1736540;81;21025;-72
2022/07/07 11:52:15;;;;;;;2.85;2.20;;;;;;;;;;1772482;80;21040;-73
2022/07/07 11:54:47;;;;;;;2.62;2.25;;;;;;;;;;1738782;80;20987;-76
2022/07/07 11:57:27;;;;;;;2.47;2.02;;;;;;;;;;1734487;81;21618;-76
2022/07/07 11:59:53;;;;;;;2.40;1.92;;;;;;;;;;1734299;81;21539;-74
2022/07/07 12:02:19;;;;;;;2.20;2.00;;;;;;;;;;1753015;80;21070;-74
2022/07/07 12:04:45;;;;;;;2.20;2.00;;;;;;;;;;1747087;81;21082;-75
2022/07/07 12:07:11;;;;;;;2.60;1.82;;;;;;;;;;1735987;81;21054;-73
2022/07/07 12:09:37;;;;;;;2.77;1.70;;;;;;;;;;1765641;80;21103;-75
2022/07/07 12:12:04;;;;;;;2.40;1.77;;;;;;;;;;1762471;80;21473;-75
2022/07/07 12:14:32;;;;;;;2.75;1.90;;;;;;;;;;1723408;81;21132;-76
2022/07/07 12:16:58;;;;;;;14.38;9.48;;;;;;;;;;1738142;81;21522;-77
2022/07/07 12:19:24;;;;;;;10.10;8.55;;;;;;;;;;1764794;80;20976;-78
2022/07/07 12:21:50;;;;;;;2.80;2.20;;;;;;;;;;1742037;80;21055;-75
2022/07/07 12:24:19;;;;;;;2.10;1.90;;;;;;;;;;1743928;81;21657;-73
2022/07/07 12:26:49;;;;;;;2.77;1.87;;;;;;;;;;1748801;81;21010;-72
2022/07/07 12:29:16;;;;;;;3.08;2.00;;;;;;;;;;1781193;80;21079;-74
2022/07/07 12:31:42;;;;;;;2.90;1.72;;;;;;;;;;1764365;80;21101;-73
2022/07/07 12:34:11;;;;;;;2.05;1.72;;;;;;;;;;1770501;80;21156;-75
2022/07/07 12:36:38;;;;;;;2.08;1.70;;;;;;;;;;1760937;80;21067;-74
2022/07/07 12:39:05;;;;;;;3.70;2.00;;;;;;;;;;1727796;82;21064;-76
2022/07/07 12:41:32;;;;;;;3.80;2.02;;;;;;;;;;1755577;80;21087;-75
2022/07/07 12:44:12;;;;;;;2.37;1.90;;;;;;;;;;1743443;81;21126;-72
2022/07/07 12:46:38;;;;;;;1.95;1.75;;;;;;;;;;1730111;82;21131;-72
2022/07/07 12:49:04;;;;;;;2.00;1.80;;;;;;;;;;1727128;81;21046;-74
2022/07/07 12:51:30;;;;;;;4.20;2.00;;;;;;;;;;1742294;82;21108;-73
2022/07/07 12:53:57;;;;;;;2.10;1.90;;;;;;;;;;1732821;81;21059;-75
2022/07/07 12:56:33;;;;;;;2.50;2.08;;;;;;;;;;1776937;80;21527;-75
2022/07/07 12:59:00;;;;;;;2.27;1.90;;;;;;;;;;1726855;81;21036;-74
2022/07/07 13:01:27;;;;;;;2.67;1.80;;;;;;;;;;1726366;81;21088;-75
2022/07/07 13:03:54;;;;;;;1.95;1.75;;;;;;;;;;1722642;81;21057;-75
2022/07/07 13:06:22;;;;;;;2.22;2.02;;;;;;;;;;1729236;81;21157;-74
2022/07/07 13:08:49;;;;;;;1.90;1.80;;;;;;;;;;1725329;81;21070;-75
2022/07/07 13:11:15;;;;;;;2.08;1.87;;;;;;;;;;1731686;81;21003;-75
2022/07/07 13:13:41;;;;;;;3.12;1.80;;;;;;;;;;1732169;81;21086;-76
2022/07/07 13:16:08;;;;;;;2.27;1.82;;;;;;;;;;1717340;81;20955;-74
2022/07/07 13:18:36;;;;;;;2.77;1.80;;;;;;;;;;1729778;81;22217;-73
2022/07/07 13:21:03;;;;;;;1.98;1.80;;;;;;;;;;1732251;81;21093;-75
2022/07/07 13:23:30;;;;;;;3.58;1.90;;;;;;;;;;1753208;80;21099;-75
2022/07/07 13:25:57;;;;;;;1.87;1.70;;;;;;;;;;1716247;81;21106;-75
2022/07/07 13:28:23;;;;;;;2.30;2.02;;;;;;;;;;1732156;81;21054;-75
2022/07/07 13:30:49;;;;;;;3.27;1.90;;;;;;;;;;1721382;80;21005;-75
2022/07/07 13:33:15;;;;;;;2.12;1.90;;;;;;;;;;1720610;81;21055;-75
2022/07/07 13:35:42;;;;;;;4.50;2.08;;;;;;;;;;1738909;81;21116;-73
2022/07/07 13:38:08;;;;;;;2.12;1.80;;;;;;;;;;1739143;81;21099;-72
2022/07/07 13:40:37;;;;;;;2.00;1.80;;;;;;;;;;1739312;81;21114;-74
2022/07/07 13:43:03;;;;;;;32.08;24.70;;;;;;;;;;1735951;81;21004;-76
2022/07/07 13:45:30;;;;;;;22.90;18.87;;;;;;;;;;1742043;81;21034;-75
2022/07/07 13:47:57;;;;;;;3.70;2.25;;;;;;;;;;1741971;81;21085;-76
2022/07/07 13:50:23;;;;;;;24.80;22.13;;;;;;;;;;1746817;81;21047;-77
2022/07/07 13:52:50;;;;;;;54.10;43.17;;;;;;;;;;1764384;81;21590;-74
2022/07/07 13:55:17;;;;;;;8.63;7.45;;;;;;;;;;1753277;81;21079;-70
2022/07/07 13:57:45;;;;;;;3.92;2.40;;;;;;;;;;1751800;81;21071;-67
2022/07/07 14:00:11;;;;;;;3.35;1.95;;;;;;;;;;1758458;81;21056;-69
2022/07/07 14:02:40;;;;;;;3.52;1.90;;;;;;;;;;1755285;81;21005;-68
2022/07/07 14:05:07;;;;;;;3.52;1.90;;;;;;;;;;1753489;81;21079;-68
2022/07/07 14:07:33;;;;;;;3.60;2.52;;;;;;;;;;1742929;81;21574;-70
2022/07/07 14:09:59;;;;;;;2.60;1.90;;;;;;;;;;1755102;80;21069;-68
2022/07/07 14:12:28;;;;;;;3.35;2.00;;;;;;;;;;1720561;82;21052;-68
2022/07/07 14:14:55;;;;;;;3.77;1.90;;;;;;;;;;1758776;81;21094;-69
2022/07/07 14:17:21;;;;;;;3.67;1.90;;;;;;;;;;1757113;81;21063;-69
2022/07/07 14:19:47;;;;;;;3.67;2.27;;;;;;;;;;1755105;80;21111;-73
2022/07/07 14:22:13;;;;;;;3.70;2.05;;;;;;;;;;1754740;81;21004;-70
2022/07/07 14:24:39;;;;;;;3.75;1.90;;;;;;;;;;1761598;81;21024;-70
2022/07/07 14:27:06;;;;;;;2.70;1.98;;;;;;;;;;1752309;81;21065;-70
2022/07/07 14:29:33;;;;;;;4.12;2.05;;;;;;;;;;1736659;82;21070;-69
2022/07/07 14:31:59;;;;;;;2.30;2.05;;;;;;;;;;1757920;80;21078;-68
2022/07/07 14:34:25;;;;;;;2.95;2.05;;;;;;;;;;1764698;80;21052;-68
2022/07/07 14:36:51;;;;;;;2.47;1.70;;;;;;;;;;1735270;81;21070;-70
2022/07/07 14:39:18;;;;;;;2.87;1.92;;;;;;;;;;1742267;81;21545;-68
2022/07/07 14:41:45;;;;;;;2.40;2.00;;;;;;;;;;1768608;80;21515;-68
2022/07/07 14:44:12;;;;;;;3.92;2.22;;;;;;;;;;1769376;80;21114;-67
2022/07/07 14:46:38;;;;;;;2.67;2.00;;;;;;;;;;1778378;80;21027;-68
2022/07/07 14:49:04;;;;;;;2.27;2.08;;;;;;;;;;1769552;80;21062;-67
2022/07/07 14:51:32;;;;;;;13.13;11.35;;;;;;;;;;1780426;80;21044;-69